sensor_id;sensor_type;location;lat;lon;timestamp;temperature;humidity
44435;DHT22;30138;20.964;105.830;2022-11-04T00:00:16;28.10;78.60
44435;DHT22;30138;20.964;105.830;2022-11-04T00:05:22;28.10;78.60
44435;DHT22;30138;20.964;105.830;2022-11-04T00:10:30;28.10;78.80
44435;DHT22;30138;20.964;105.830;2022-11-04T00:15:50;28.00;78.70
44435;DHT22;30138;20.964;105.830;2022-11-04T00:21:21;28.00;78.80
44435;DHT22;30138;20.964;105.830;2022-11-04T00:26:46;28.00;78.80
44435;DHT22;30138;20.964;105.830;2022-11-04T00:32:10;28.00;78.80
44435;DHT22;30138;20.964;105.830;2022-11-04T00:37:36;28.00;79.00
44435;DHT22;30138;20.964;105.830;2022-11-04T00:42:45;28.00;79.10
44435;DHT22;30138;20.964;105.830;2022-11-04T00:47:51;28.00;79.00
44435;DHT22;30138;20.964;105.830;2022-11-04T00:52:59;28.00;79.10
44435;DHT22;30138;20.964;105.830;2022-11-04T00:58:07;27.90;79.10
44435;DHT22;30138;20.964;105.830;2022-11-04T01:03:14;28.00;79.10
44435;DHT22;30138;20.964;105.830;2022-11-04T01:08:22;28.00;78.90
44435;DHT22;30138;20.964;105.830;2022-11-04T01:13:31;28.20;78.00
44435;DHT22;30138;20.964;105.830;2022-11-04T01:18:38;28.30;77.70
44435;DHT22;30138;20.964;105.830;2022-11-04T01:23:45;28.50;77.30
44435;DHT22;30138;20.964;105.830;2022-11-04T01:28:55;28.50;77.00
44435;DHT22;30138;20.964;105.830;2022-11-04T01:34:02;28.60;76.70
44435;DHT22;30138;20.964;105.830;2022-11-04T01:39:10;28.70;76.70
44435;DHT22;30138;20.964;105.830;2022-11-04T01:44:47;28.80;76.40
44435;DHT22;30138;20.964;105.830;2022-11-04T01:49:57;28.90;76.40
44435;DHT22;30138;20.964;105.830;2022-11-04T01:55:09;29.00;76.10
44435;DHT22;30138;20.964;105.830;2022-11-04T02:00:19;29.10;76.00
44435;DHT22;30138;20.964;105.830;2022-11-04T02:05:26;29.10;75.70
44435;DHT22;30138;20.964;105.830;2022-11-04T02:10:34;29.20;75.70
44435;DHT22;30138;20.964;105.830;2022-11-04T02:15:45;29.30;75.50
44435;DHT22;30138;20.964;105.830;2022-11-04T02:21:17;29.30;75.50
44435;DHT22;30138;20.964;105.830;2022-11-04T02:32:37;29.40;75.60
44435;DHT22;30138;20.964;105.830;2022-11-04T02:37:55;29.50;75.60
44435;DHT22;30138;20.964;105.830;2022-11-04T02:43:11;29.50;75.60
44435;DHT22;30138;20.964;105.830;2022-11-04T02:48:31;29.50;75.60
44435;DHT22;30138;20.964;105.830;2022-11-04T02:53:43;29.50;75.50
44435;DHT22;30138;20.964;105.830;2022-11-04T02:58:54;29.50;75.40
44435;DHT22;30138;20.964;105.830;2022-11-04T03:04:04;29.50;75.40
44435;DHT22;30138;20.964;105.830;2022-11-04T03:09:13;29.50;75.50
44435;DHT22;30138;20.964;105.830;2022-11-04T03:14:24;29.50;75.60
44435;DHT22;30138;20.964;105.830;2022-11-04T03:19:40;29.50;75.70
44435;DHT22;30138;20.964;105.830;2022-11-04T03:24:49;29.50;75.70
44435;DHT22;30138;20.964;105.830;2022-11-04T03:30:00;29.50;75.90
44435;DHT22;30138;20.964;105.830;2022-11-04T03:35:11;29.50;75.70
44435;DHT22;30138;20.964;105.830;2022-11-04T03:40:19;29.50;75.70
44435;DHT22;30138;20.964;105.830;2022-11-04T03:45:27;29.50;75.60
44435;DHT22;30138;20.964;105.830;2022-11-04T03:50:40;29.50;75.60
44435;DHT22;30138;20.964;105.830;2022-11-04T03:56:02;29.60;75.70
44435;DHT22;30138;20.964;105.830;2022-11-04T04:01:26;29.60;75.60
44435;DHT22;30138;20.964;105.830;2022-11-04T04:06:39;29.60;75.60
44435;DHT22;30138;20.964;105.830;2022-11-04T04:11:54;29.60;75.60
44435;DHT22;30138;20.964;105.830;2022-11-04T04:17:04;29.60;75.50
44435;DHT22;30138;20.964;105.830;2022-11-04T04:22:14;29.70;75.80
44435;DHT22;30138;20.964;105.830;2022-11-04T04:27:23;29.70;75.80
44435;DHT22;30138;20.964;105.830;2022-11-04T04:32:38;29.70;75.80
44435;DHT22;30138;20.964;105.830;2022-11-04T04:37:52;29.70;75.60
44435;DHT22;30138;20.964;105.830;2022-11-04T04:43:21;29.80;75.80
44435;DHT22;30138;20.964;105.830;2022-11-04T04:48:44;29.80;75.60
44435;DHT22;30138;20.964;105.830;2022-11-04T04:53:54;29.90;75.80
44435;DHT22;30138;20.964;105.830;2022-11-04T04:59:00;29.90;75.60
44435;DHT22;30138;20.964;105.830;2022-11-04T05:04:07;29.90;75.40
44435;DHT22;30138;20.964;105.830;2022-11-04T05:09:15;29.90;75.10
44435;DHT22;30138;20.964;105.830;2022-11-04T05:14:21;30.00;75.20
44435;DHT22;30138;20.964;105.830;2022-11-04T05:19:28;30.00;75.20
44435;DHT22;30138;20.964;105.830;2022-11-04T05:24:36;30.00;74.90
44435;DHT22;30138;20.964;105.830;2022-11-04T05:29:44;30.00;74.80
44435;DHT22;30138;20.964;105.830;2022-11-04T05:34:51;30.10;74.50
44435;DHT22;30138;20.964;105.830;2022-11-04T05:40:03;30.10;74.90
44435;DHT22;30138;20.964;105.830;2022-11-04T05:45:13;30.10;74.40
44435;DHT22;30138;20.964;105.830;2022-11-04T05:50:20;30.20;75.10
44435;DHT22;30138;20.964;105.830;2022-11-04T05:55:29;30.20;73.90
44435;DHT22;30138;20.964;105.830;2022-11-04T06:00:35;30.30;73.60
44435;DHT22;30138;20.964;105.830;2022-11-04T06:05:42;30.30;73.70
44435;DHT22;30138;20.964;105.830;2022-11-04T06:10:51;30.30;72.60
44435;DHT22;30138;20.964;105.830;2022-11-04T06:15:59;30.30;72.80
44435;DHT22;30138;20.964;105.830;2022-11-04T06:21:09;30.30;73.30
44435;DHT22;30138;20.964;105.830;2022-11-04T06:26:26;30.20;73.30
44435;DHT22;30138;20.964;105.830;2022-11-04T06:31:33;30.30;72.90
44435;DHT22;30138;20.964;105.830;2022-11-04T06:36:40;30.30;72.70
44435;DHT22;30138;20.964;105.830;2022-11-04T06:41:49;30.30;72.70
44435;DHT22;30138;20.964;105.830;2022-11-04T06:46:56;30.30;73.00
44435;DHT22;30138;20.964;105.830;2022-11-04T06:52:03;30.30;72.50
44435;DHT22;30138;20.964;105.830;2022-11-04T06:57:11;30.30;72.50
44435;DHT22;30138;20.964;105.830;2022-11-04T07:02:19;30.30;72.70
44435;DHT22;30138;20.964;105.830;2022-11-04T07:07:26;30.30;72.60
44435;DHT22;30138;20.964;105.830;2022-11-04T07:12:36;30.40;72.70
44435;DHT22;30138;20.964;105.830;2022-11-04T07:17:43;30.40;72.90
44435;DHT22;30138;20.964;105.830;2022-11-04T07:22:54;30.40;72.70
44435;DHT22;30138;20.964;105.830;2022-11-04T07:28:05;30.40;73.10
44435;DHT22;30138;20.964;105.830;2022-11-04T07:33:15;30.50;73.10
44435;DHT22;30138;20.964;105.830;2022-11-04T07:38:22;30.50;73.20
44435;DHT22;30138;20.964;105.830;2022-11-04T07:43:30;30.50;72.80
44435;DHT22;30138;20.964;105.830;2022-11-04T07:48:38;30.50;72.50
44435;DHT22;30138;20.964;105.830;2022-11-04T07:53:45;30.50;72.00
44435;DHT22;30138;20.964;105.830;2022-11-04T07:58:54;30.50;72.40
44435;DHT22;30138;20.964;105.830;2022-11-04T08:04:01;30.50;73.30
44435;DHT22;30138;20.964;105.830;2022-11-04T08:09:09;30.50;72.70
44435;DHT22;30138;20.964;105.830;2022-11-04T08:14:18;30.50;72.90
44435;DHT22;30138;20.964;105.830;2022-11-04T08:19:25;30.50;72.90
44435;DHT22;30138;20.964;105.830;2022-11-04T08:24:31;30.50;72.30
44435;DHT22;30138;20.964;105.830;2022-11-04T08:29:40;30.50;72.00
44435;DHT22;30138;20.964;105.830;2022-11-04T08:34:49;30.50;71.40
44435;DHT22;30138;20.964;105.830;2022-11-04T08:39:57;30.50;71.90
44435;DHT22;30138;20.964;105.830;2022-11-04T08:45:06;30.50;72.10
44435;DHT22;30138;20.964;105.830;2022-11-04T08:50:14;30.50;72.90
44435;DHT22;30138;20.964;105.830;2022-11-04T08:55:21;30.50;71.50
44435;DHT22;30138;20.964;105.830;2022-11-04T09:00:29;30.50;71.60
44435;DHT22;30138;20.964;105.830;2022-11-04T09:05:37;30.40;71.60
44435;DHT22;30138;20.964;105.830;2022-11-04T09:10:47;30.40;71.20
44435;DHT22;30138;20.964;105.830;2022-11-04T09:15:58;30.40;71.80
44435;DHT22;30138;20.964;105.830;2022-11-04T09:21:07;30.40;71.20
44435;DHT22;30138;20.964;105.830;2022-11-04T09:26:17;30.40;71.60
44435;DHT22;30138;20.964;105.830;2022-11-04T09:31:25;30.40;71.90
44435;DHT22;30138;20.964;105.830;2022-11-04T09:36:33;30.40;71.40
44435;DHT22;30138;20.964;105.830;2022-11-04T09:42:04;30.30;71.60
44435;DHT22;30138;20.964;105.830;2022-11-04T09:47:27;30.30;71.50
44435;DHT22;30138;20.964;105.830;2022-11-04T09:52:40;30.30;71.40
44435;DHT22;30138;20.964;105.830;2022-11-04T09:57:54;30.30;71.90
44435;DHT22;30138;20.964;105.830;2022-11-04T10:03:15;30.30;71.70
44435;DHT22;30138;20.964;105.830;2022-11-04T10:08:50;30.30;71.80
44435;DHT22;30138;20.964;105.830;2022-11-04T10:14:41;30.20;72.00
44435;DHT22;30138;20.964;105.830;2022-11-04T10:20:09;30.20;72.50
44435;DHT22;30138;20.964;105.830;2022-11-04T10:25:27;30.20;72.60
44435;DHT22;30138;20.964;105.830;2022-11-04T10:30:38;30.20;73.40
44435;DHT22;30138;20.964;105.830;2022-11-04T10:35:50;30.20;72.40
44435;DHT22;30138;20.964;105.830;2022-11-04T10:41:00;30.10;72.20
44435;DHT22;30138;20.964;105.830;2022-11-04T10:46:16;30.10;72.40
44435;DHT22;30138;20.964;105.830;2022-11-04T10:51:32;30.10;72.00
44435;DHT22;30138;20.964;105.830;2022-11-04T10:56:41;30.10;72.20
44435;DHT22;30138;20.964;105.830;2022-11-04T11:01:51;30.10;72.20
44435;DHT22;30138;20.964;105.830;2022-11-04T11:07:03;30.10;72.00
44435;DHT22;30138;20.964;105.830;2022-11-04T11:12:19;30.10;72.00
44435;DHT22;30138;20.964;105.830;2022-11-04T11:17:37;30.10;72.00
44435;DHT22;30138;20.964;105.830;2022-11-04T11:22:47;30.10;72.00
44435;DHT22;30138;20.964;105.830;2022-11-04T11:27:57;30.10;71.90
44435;DHT22;30138;20.964;105.830;2022-11-04T11:33:13;30.10;72.00
44435;DHT22;30138;20.964;105.830;2022-11-04T11:38:24;30.10;72.10
44435;DHT22;30138;20.964;105.830;2022-11-04T11:43:33;30.10;71.90
44435;DHT22;30138;20.964;105.830;2022-11-04T11:48:43;30.10;71.90
44435;DHT22;30138;20.964;105.830;2022-11-04T11:54:15;30.00;71.70
44435;DHT22;30138;20.964;105.830;2022-11-04T11:59:31;30.00;71.40
44435;DHT22;30138;20.964;105.830;2022-11-04T12:04:42;30.00;70.90
44435;DHT22;30138;20.964;105.830;2022-11-04T12:09:56;30.00;70.50
44435;DHT22;30138;20.964;105.830;2022-11-04T12:15:29;30.00;70.30
44435;DHT22;30138;20.964;105.830;2022-11-04T12:20:48;30.00;70.20
44435;DHT22;30138;20.964;105.830;2022-11-04T12:26:12;30.00;70.50
44435;DHT22;30138;20.964;105.830;2022-11-04T12:31:30;30.00;70.70
44435;DHT22;30138;20.964;105.830;2022-11-04T12:36:52;30.00;70.50
44435;DHT22;30138;20.964;105.830;2022-11-04T12:42:15;30.00;70.40
44435;DHT22;30138;20.964;105.830;2022-11-04T12:47:33;30.00;70.30
44435;DHT22;30138;20.964;105.830;2022-11-04T12:53:08;30.00;70.20
44435;DHT22;30138;20.964;105.830;2022-11-04T12:58:41;30.00;70.10
44435;DHT22;30138;20.964;105.830;2022-11-04T13:04:00;30.00;70.20
44435;DHT22;30138;20.964;105.830;2022-11-04T13:09:12;30.00;70.10
44435;DHT22;30138;20.964;105.830;2022-11-04T13:14:25;30.00;69.90
44435;DHT22;30138;20.964;105.830;2022-11-04T13:19:36;30.00;69.90
44435;DHT22;30138;20.964;105.830;2022-11-04T13:24:51;29.90;69.70
44435;DHT22;30138;20.964;105.830;2022-11-04T13:30:05;29.90;69.70
44435;DHT22;30138;20.964;105.830;2022-11-04T13:35:22;29.90;70.00
44435;DHT22;30138;20.964;105.830;2022-11-04T13:40:43;29.90;70.60
44435;DHT22;30138;20.964;105.830;2022-11-04T13:45:57;29.90;71.30
44435;DHT22;30138;20.964;105.830;2022-11-04T13:51:07;29.90;71.80
44435;DHT22;30138;20.964;105.830;2022-11-04T13:56:27;29.90;72.50
44435;DHT22;30138;20.964;105.830;2022-11-04T14:01:38;29.90;73.30
44435;DHT22;30138;20.964;105.830;2022-11-04T14:06:58;29.90;74.20
44435;DHT22;30138;20.964;105.830;2022-11-04T14:12:38;29.90;74.90
44435;DHT22;30138;20.964;105.830;2022-11-04T14:18:03;29.90;75.40
44435;DHT22;30138;20.964;105.830;2022-11-04T14:23:21;29.80;75.90
44435;DHT22;30138;20.964;105.830;2022-11-04T14:28:29;29.80;76.20
44435;DHT22;30138;20.964;105.830;2022-11-04T14:33:48;29.80;76.40
44435;DHT22;30138;20.964;105.830;2022-11-04T14:39:19;29.80;76.70
44435;DHT22;30138;20.964;105.830;2022-11-04T14:44:30;29.80;77.00
44435;DHT22;30138;20.964;105.830;2022-11-04T14:49:43;29.80;77.30
44435;DHT22;30138;20.964;105.830;2022-11-04T14:54:54;29.80;77.60
44435;DHT22;30138;20.964;105.830;2022-11-04T15:00:18;29.80;77.90
44435;DHT22;30138;20.964;105.830;2022-11-04T15:05:37;29.70;78.00
44435;DHT22;30138;20.964;105.830;2022-11-04T15:10:49;29.70;78.10
44435;DHT22;30138;20.964;105.830;2022-11-04T15:15:57;29.70;78.20
44435;DHT22;30138;20.964;105.830;2022-11-04T15:21:17;29.70;78.50
44435;DHT22;30138;20.964;105.830;2022-11-04T15:26:33;29.70;78.70
44435;DHT22;30138;20.964;105.830;2022-11-04T15:31:53;29.70;78.80
44435;DHT22;30138;20.964;105.830;2022-11-04T15:37:03;29.60;79.00
44435;DHT22;30138;20.964;105.830;2022-11-04T15:42:13;29.60;79.10
44435;DHT22;30138;20.964;105.830;2022-11-04T15:47:41;29.60;79.20
44435;DHT22;30138;20.964;105.830;2022-11-04T15:52:53;29.60;79.40
44435;DHT22;30138;20.964;105.830;2022-11-04T15:58:02;29.60;79.60
44435;DHT22;30138;20.964;105.830;2022-11-04T16:03:16;29.60;79.90
44435;DHT22;30138;20.964;105.830;2022-11-04T16:08:28;29.50;80.10
44435;DHT22;30138;20.964;105.830;2022-11-04T16:13:35;29.60;80.40
44435;DHT22;30138;20.964;105.830;2022-11-04T16:18:43;29.50;80.60
44435;DHT22;30138;20.964;105.830;2022-11-04T16:23:56;29.50;80.80
44435;DHT22;30138;20.964;105.830;2022-11-04T16:29:08;29.50;81.10
44435;DHT22;30138;20.964;105.830;2022-11-04T16:34:18;29.50;81.30
44435;DHT22;30138;20.964;105.830;2022-11-04T16:39:27;29.40;81.40
44435;DHT22;30138;20.964;105.830;2022-11-04T16:44:34;29.50;81.50
44435;DHT22;30138;20.964;105.830;2022-11-04T16:49:41;29.50;81.70
44435;DHT22;30138;20.964;105.830;2022-11-04T16:54:53;29.40;81.80
44435;DHT22;30138;20.964;105.830;2022-11-04T17:00:01;29.40;81.90
44435;DHT22;30138;20.964;105.830;2022-11-04T17:05:09;29.40;82.20
44435;DHT22;30138;20.964;105.830;2022-11-04T17:10:18;29.30;82.20
44435;DHT22;30138;20.964;105.830;2022-11-04T17:15:43;29.30;82.30
44435;DHT22;30138;20.964;105.830;2022-11-04T17:20:51;29.30;82.40
44435;DHT22;30138;20.964;105.830;2022-11-04T17:26:08;29.30;82.70
44435;DHT22;30138;20.964;105.830;2022-11-04T17:31:19;29.30;82.80
44435;DHT22;30138;20.964;105.830;2022-11-04T17:36:26;29.20;82.90
44435;DHT22;30138;20.964;105.830;2022-11-04T17:41:34;29.30;82.90
44435;DHT22;30138;20.964;105.830;2022-11-04T17:46:57;29.30;82.90
44435;DHT22;30138;20.964;105.830;2022-11-04T17:52:04;29.20;82.90
44435;DHT22;30138;20.964;105.830;2022-11-04T17:57:12;29.20;82.90
44435;DHT22;30138;20.964;105.830;2022-11-04T18:02:19;29.20;82.80
44435;DHT22;30138;20.964;105.830;2022-11-04T18:07:26;29.20;82.80
44435;DHT22;30138;20.964;105.830;2022-11-04T18:12:35;29.10;82.50
44435;DHT22;30138;20.964;105.830;2022-11-04T18:17:43;29.10;82.40
44435;DHT22;30138;20.964;105.830;2022-11-04T18:22:51;29.10;82.20
44435;DHT22;30138;20.964;105.830;2022-11-04T18:28:00;29.10;82.20
44435;DHT22;30138;20.964;105.830;2022-11-04T18:33:06;29.10;82.00
44435;DHT22;30138;20.964;105.830;2022-11-04T18:38:13;29.10;81.90
44435;DHT22;30138;20.964;105.830;2022-11-04T18:43:21;29.10;81.80
44435;DHT22;30138;20.964;105.830;2022-11-04T18:48:27;29.10;81.70
44435;DHT22;30138;20.964;105.830;2022-11-04T18:53:35;29.10;81.70
44435;DHT22;30138;20.964;105.830;2022-11-04T18:58:43;29.10;81.60
44435;DHT22;30138;20.964;105.830;2022-11-04T19:03:50;29.10;81.70
44435;DHT22;30138;20.964;105.830;2022-11-04T19:08:58;29.10;81.70
44435;DHT22;30138;20.964;105.830;2022-11-04T19:14:09;29.10;81.70
44435;DHT22;30138;20.964;105.830;2022-11-04T19:19:17;29.10;81.70
44435;DHT22;30138;20.964;105.830;2022-11-04T19:24:24;29.10;82.50
44435;DHT22;30138;20.964;105.830;2022-11-04T19:29:32;29.10;81.80
44435;DHT22;30138;20.964;105.830;2022-11-04T19:34:38;29.00;81.80
44435;DHT22;30138;20.964;105.830;2022-11-04T19:39:45;29.00;81.90
44435;DHT22;30138;20.964;105.830;2022-11-04T19:44:53;29.00;82.00
44435;DHT22;30138;20.964;105.830;2022-11-04T19:50:00;29.00;82.20
44435;DHT22;30138;20.964;105.830;2022-11-04T19:55:07;29.00;82.20
44435;DHT22;30138;20.964;105.830;2022-11-04T20:00:19;29.00;82.30
44435;DHT22;30138;20.964;105.830;2022-11-04T20:05:26;29.00;82.50
44435;DHT22;30138;20.964;105.830;2022-11-04T20:10:34;29.00;82.60
44435;DHT22;30138;20.964;105.830;2022-11-04T20:15:43;28.90;82.50
44435;DHT22;30138;20.964;105.830;2022-11-04T20:20:49;29.00;83.40
44435;DHT22;30138;20.964;105.830;2022-11-04T20:25:56;28.90;82.70
44435;DHT22;30138;20.964;105.830;2022-11-04T20:31:15;28.90;82.80
44435;DHT22;30138;20.964;105.830;2022-11-04T20:36:23;28.90;83.70
44435;DHT22;30138;20.964;105.830;2022-11-04T20:41:31;28.90;83.00
44435;DHT22;30138;20.964;105.830;2022-11-04T20:46:40;28.90;83.10
44435;DHT22;30138;20.964;105.830;2022-11-04T20:51:47;28.90;83.20
44435;DHT22;30138;20.964;105.830;2022-11-04T20:56:54;28.90;83.40
44435;DHT22;30138;20.964;105.830;2022-11-04T21:02:03;28.90;83.50
44435;DHT22;30138;20.964;105.830;2022-11-04T21:07:09;28.90;83.50
44435;DHT22;30138;20.964;105.830;2022-11-04T21:12:16;28.80;83.60
44435;DHT22;30138;20.964;105.830;2022-11-04T21:17:24;28.80;84.30
44435;DHT22;30138;20.964;105.830;2022-11-04T21:22:31;28.80;83.80
44435;DHT22;30138;20.964;105.830;2022-11-04T21:27:37;28.80;83.90
44435;DHT22;30138;20.964;105.830;2022-11-04T21:32:45;28.80;84.20
44435;DHT22;30138;20.964;105.830;2022-11-04T21:37:52;28.80;84.40
44435;DHT22;30138;20.964;105.830;2022-11-04T21:42:59;28.80;84.70
44435;DHT22;30138;20.964;105.830;2022-11-04T21:48:08;28.70;84.80
44435;DHT22;30138;20.964;105.830;2022-11-04T21:53:15;28.70;85.00
44435;DHT22;30138;20.964;105.830;2022-11-04T21:58:22;28.70;85.00
44435;DHT22;30138;20.964;105.830;2022-11-04T22:03:30;28.70;85.20
44435;DHT22;30138;20.964;105.830;2022-11-04T22:08:42;28.70;85.50
44435;DHT22;30138;20.964;105.830;2022-11-04T22:13:54;28.70;85.80
44435;DHT22;30138;20.964;105.830;2022-11-04T22:19:04;28.70;86.30
44435;DHT22;30138;20.964;105.830;2022-11-04T22:24:13;28.60;86.50
44435;DHT22;30138;20.964;105.830;2022-11-04T22:29:21;28.60;86.60
44435;DHT22;30138;20.964;105.830;2022-11-04T22:34:30;28.60;87.00
44435;DHT22;30138;20.964;105.830;2022-11-04T22:39:37;28.60;87.10
44435;DHT22;30138;20.964;105.830;2022-11-04T22:44:44;28.60;87.30
44435;DHT22;30138;20.964;105.830;2022-11-04T22:49:52;28.60;87.60
44435;DHT22;30138;20.964;105.830;2022-11-04T22:55:00;28.60;87.70
44435;DHT22;30138;20.964;105.830;2022-11-04T23:00:09;28.60;87.80
44435;DHT22;30138;20.964;105.830;2022-11-04T23:05:18;28.50;87.90
44435;DHT22;30138;20.964;105.830;2022-11-04T23:10:25;28.50;88.10
44435;DHT22;30138;20.964;105.830;2022-11-04T23:15:47;28.50;88.20
44435;DHT22;30138;20.964;105.830;2022-11-04T23:21:12;28.50;88.20
44435;DHT22;30138;20.964;105.830;2022-11-04T23:26:51;28.50;88.00
44435;DHT22;30138;20.964;105.830;2022-11-04T23:31:59;28.50;88.20
44435;DHT22;30138;20.964;105.830;2022-11-04T23:37:08;28.50;88.20
44435;DHT22;30138;20.964;105.830;2022-11-04T23:42:19;28.50;88.30
44435;DHT22;30138;20.964;105.830;2022-11-04T23:47:26;28.50;88.30
44435;DHT22;30138;20.964;105.830;2022-11-04T23:52:51;28.50;88.50
44435;DHT22;30138;20.964;105.830;2022-11-04T23:58:13;28.50;89.20
